Detall de PIREP

Printer-friendly versionPDF version

[2012/06/08 15:52:00]
Flight IATA:CT2301
Pilot Number:042
Company ICAO:CAT
Aircraft Type:A320/E
PAX:120
Departing Airport: LIBD
Destination Airport: LIEA
Alternate Airport:LIEO
Online: VATSIM
Route:TOPNO UP748 BUMOK UM742 SOR UM603 MOROB
Flight Level:F320
No Slew and time accel
No pause
Crash detect
Detect pilot in Cockpit between each 30 and 45 minutes
15:52 Zero fuel Weight: 143851 Lbs, Fuel Weight: 42160 Lbs
15:52 VATSIM:LIBD 081520Z 16011KT CAVOK 35/09 Q1012
15:52 VATSIM:LIEA 081520Z 17008KT 140V200 CAVOK 27/20 Q1009
15:52 VOICE CATALONIAN
16:00 Parking Brakes off
16:06 Take-off
16:06 Take off Weight: 185052 Lbs
16:06 Wind: 158º @ 011 Knots Heading: 245º
16:06 POS N41º 08´ 04´´ E016º 44´ 47´´
16:06 Gear Up: 152 Knots
16:06 Flaps:4 at 152 Knots
16:06 Flaps:3 at 151 Knots
16:07 Flaps:2 at 185 Knots
16:07 Flaps:1 at 193 Knots
16:07 Flaps:0 at 194 Knots
16:21 Wind:299º@028 Knots Heading: 264º Ground Speed: 448 Knots Altitude 25531 ft
16:25 TOC
16:25 Fuel Weight: 35949 Lb
16:36 Wind:164º@028 Knots Heading: 264º Ground Speed: 475 Knots Altitude 32017 ft
16:49 TOD
16:49 Fuel Weight: 33277 Lb
16:51 Wind:110º@024 Knots Heading: 263º Ground Speed: 472 Knots Altitude 29885 ft
17:06 Wind:186º@007 Knots Heading: 218º Ground Speed: 238 Knots Altitude 3746 ft
17:06 Flaps:1 at 236 Knots
17:07 Flaps:3 at 171 Knots
17:08 Gear Down: 167 Knots
17:08 Flaps:4 at 166 Knots
17:08 Flaps:5 at 151 Knots
17:11 TouchDown:Rate -90 ft/min Speed: 127 Knots
17:11 VATSIM:LIEA 081650Z 29005KT 260V330 CAVOK 28/20 Q1009
17:11 Land
17:11 Wind:288º@005 Knots
17:11 Heading: 209º
17:11 Flight Duration: 01:05
17:11 Landing Weight: 175690 Lbs
17:11 POS N40º 37´ 38´´ E008º 17´ 18´´
17:14 Parking brakes on
17:14 Block to Block Duration: 01:14
17:14 Final Fuel: 31585 Lbls
17:14 Spent Fuel: 10575 Lbls
17:14 Flight Length: 416 NM
17:14 TOD Land Length: 109 NM

Exportar CSV

Powered by Drupal - Modified by Danger4k